• Join FlightAware (Why Join?)
  • Login
  • US Flag 
08:41PM EST


 

Airport Tracker/Info


-or-


 

Live Flight TrackerFlight Track Log ✈ N529LB ✈ 05-Jun-2013 ✈ KSMQ - KSLK

Flight Track Log - Related Links

Times and Time Zones

All times are in EDT time to prevent confusion due to time zone crossing. See the N529LB flight status page for this flight to view local times or setup timezone preferences in your user account.

Time Position Orientation Groundspeed Altitude Reporting Facility
EDT Latitude Longitude Course Direction KTS MPH feet Rate Location/Type
08:04AM 40.6333 -74.7500 201° Southwest 140 161 1,900  Level New York TRACON
08:05AM 40.6000 -74.7667 201° Southwest 148 170 2,500 720 Climbing New York TRACON
08:06AM 40.6167 -74.7167 66° East 126 145 3,400 780 Climbing New York TRACON
08:07AM 40.6333 -74.6833 57° Northeast 130 150 4,100 300 Climbing New York TRACON
08:08AM 40.6500 -74.6333 66° East 164 189 4,100  Level New York TRACON
08:09AM 40.6833 -74.5833 49° Northeast 174 200 4,100  Level New York TRACON
08:10AM 40.7167 -74.5333 49° Northeast 176 203 4,100  Level New York TRACON
08:11AM 40.7333 -74.4667 72° East 173 199 4,100 240 Level New York TRACON
08:12AM 40.7667 -74.4333 37° Northeast 156 180 4,600 780 Climbing New York TRACON
08:13AM 40.7833 -74.3833 66° East 131 151 5,700 720 Climbing New York TRACON
08:14AM 40.8000 -74.3500 57° Northeast 144 166 6,100 180 Climbing New York TRACON
08:15AM 40.8333 -74.2833 57° Northeast 177 204 6,100  Level New York TRACON
08:16AM 40.8667 -74.2500 37° Northeast 168 193 6,100  Level New York TRACON
08:17AM 40.9000 -74.2333 21° North 171 197 6,100  Level New York TRACON
08:18AM 40.9500 -74.2167 14° North 169 194 6,100  Level New York TRACON
08:19AM 41.0000 -74.2000 14° North 171 197 6,100  Level New York TRACON
08:20AM 41.0333 -74.1833 21° North 169 194 6,100  Level New York TRACON
08:21AM 41.0833 -74.1667 14° North 172 198 6,100  Level New York TRACON
08:22AM 41.1333 -74.1500 14° North 171 197 6,100 480 Level New York TRACON
08:23AM 41.1667 -74.1167 37° Northeast 157 181 7,100 780 Climbing New York TRACON
08:24AM 41.1833 -74.0500 72° East 161 185 7,700 660 Climbing New York TRACON
08:25AM 41.1833 -74.0000 90° East 165 190 8,500 780 Climbing New York TRACON
08:26AM 41.2000 -73.9500 66° East 165 190 9,200 720 Climbing New York TRACON
08:27AM 41.2167 -73.8833 72° East 167 192 10,000 660 Climbing New York TRACON
08:29AM 41.2333 -73.7500 81° East 173 199 11,400 720 Climbing New York TRACON
08:30AM 41.2500 -73.7000 66° East 177 204 12,200 540 Climbing New York TRACON
08:32AM 41.2944 -73.5672 66° East 179 206 13,200 540 Climbing Boston Center
08:33AM 41.3261 -73.5208 48° Northeast 169 194 14,000 720 Climbing Boston Center
08:34AM 41.3619 -73.4883 34° Northeast 161 185 14,700 600 Climbing Boston Center
08:35AM 41.3908 -73.4997 344° North 130 150 15,200 600 Climbing Boston Center
08:36AM 41.4325 -73.5089 351° North 125 144 15,900 600 Climbing Boston Center
08:37AM 41.4636 -73.5147 352° North 125 144 16,500 540 Climbing Boston Center
08:38AM 41.5117 -73.5239 352° North 125 144 17,000 240 Climbing Boston Center
08:39AM 41.5572 -73.5386 346° North 138 159 17,000  Level Boston Center
08:40AM 41.6050 -73.5478 352° North 153 176 17,000  Level Boston Center
08:41AM 41.6508 -73.5597 349° North 164 189 17,000  Level Boston Center
08:42AM 41.6986 -73.5689 352° North 164 189 17,000  Level Boston Center
08:43AM 41.7444 -73.5781 352° North 164 189 17,000  Level Boston Center
08:44AM 41.7900 -73.5928 346° North 164 189 17,000  Level Boston Center
08:45AM 41.8358 -73.6019 352° North 164 189 17,000  Level Boston Center
08:46AM 41.8794 -73.6111 351° North 164 189 17,000  Level Boston Center
08:47AM 41.9275 -73.6233 349° North 164 189 17,000  Level Boston Center
08:48AM 41.9731 -73.6325 351° North 164 189 17,000  Level Boston Center
08:49AM 42.0208 -73.6444 349° North 164 189 17,000  Level Boston Center
08:50AM 42.0667 -73.6567 349° North 164 189 17,000  Level Boston Center
08:51AM 42.1144 -73.6631 354° North 164 189 17,000  Level Boston Center
08:52AM 42.1603 -73.6753 349° North 164 189 17,000  Level Boston Center
08:53AM 42.2058 -73.6872 349° North 164 189 17,000  Level Boston Center
08:54AM 42.2517 -73.6967 351° North 164 189 17,000  Level Boston Center
08:55AM 42.3058 -73.7089 351° North 164 189 17,000  Level Boston Center
08:56AM 42.3494 -73.7156 354° North 164 189 17,000  Level Boston Center
08:57AM 42.3931 -73.7275 349° North 164 189 17,000  Level Boston Center
08:58AM 42.4408 -73.7369 352° North 164 189 17,000  Level Boston Center
08:59AM 42.4825 -73.7492 348° North 164 189 17,000  Level Boston Center
09:00AM 42.5283 -73.7586 351° North 165 190 17,000  Level Boston Center
09:01AM 42.5739 -73.7681 351° North 160 184 17,000  Level Boston Center
09:02AM 42.6300 -73.7861 347° North 165 190 17,000  Level Boston Center
09:03AM 42.6778 -73.7986 349° North 165 190 17,000  Level Boston Center
09:04AM 42.7256 -73.8081 352° North 165 190 17,000  Level Boston Center
09:05AM 42.7714 -73.8203 349° North 165 190 17,000  Level Boston Center
09:06AM 42.8192 -73.8300 352° North 165 190 17,000  Level Boston Center
09:07AM 42.8567 -73.8392 350° North 165 190 17,000  Level Boston Center
09:08AM 42.9106 -73.8489 352° North 160 184 17,000  Level Boston Center
09:09AM 42.9542 -73.8586 351° North 165 190 17,000  Level Boston Center
09:10AM 43.0042 -73.8711 350° North 165 190 17,000  Level Boston Center
09:11AM 43.0478 -73.8806 351° North 165 190 17,000  Level Boston Center
09:12AM 43.0997 -73.8931 350° North 165 190 17,100  Climbing Boston Center
09:13AM 43.1433 -73.9028 351° North 165 190 17,000 -60 Descending Boston Center
09:14AM 43.1933 -73.9153 350° North 165 190 17,000  Level Boston Center
09:15AM 43.2389 -73.9250 351° North 165 190 17,100  Climbing Boston Center
09:16AM 43.2908 -73.9375 350° North 170 196 17,100  Level Boston Center
09:17AM 43.3344 -73.9444 353° North 170 196 17,100  Level Boston Center
09:18AM 43.4011 -73.9461 359° North 175 201 17,100  Level Boston Center
09:19AM 43.4514 -73.9444 North 175 201 17,100  Level Boston Center
09:20AM 43.5014 -73.9428 North 175 201 17,100  Level Boston Center
09:21AM 43.5514 -73.9383 North 175 201 17,100  Level Boston Center
09:22AM 43.6014 -73.9394 359° North 175 201 17,100  Level Boston Center
09:23AM 43.6494 -73.9378 North 175 201 17,100 -60 Level Boston Center
09:24AM 43.6975 -73.9275 North 175 201 17,000 -60 Descending Boston Center
09:25AM 43.7392 -73.9286 359° North 175 201 17,000  Level Boston Center
09:26AM 43.7975 -73.9242 North 175 201 17,000  Level Boston Center
09:27AM 43.8475 -73.9228 North 175 201 17,000 -120 Level Boston Center
09:28AM 43.8956 -73.9208 North 175 201 16,800 -540 Descending Boston Center
09:29AM 43.9539 -73.9194 North 189 217 16,000 -900 Descending Boston Center
09:30AM 44.0100 -73.9181 North 200 230 15,000 -960 Descending Boston Center
09:31AM 44.0644 -73.9136 North 193 222 14,100 -900 Descending Boston Center
09:32AM 44.1144 -73.9147 359° North 188 216 13,200 -900 Descending Boston Center
09:33AM 44.1644 -73.9075 North 183 211 12,300 -900 Descending Boston Center
09:34AM 44.2144 -73.9086 359° North 178 205 11,400 -900 Descending Boston Center